Time;durP1;ratioP1;P1;durP2;ratioP2;P2;SDS_P1;SDS_P2;PMS_P1;PMS_P2;Temp;Humidity;BMP_temperature;BMP_pressure;BME280_temperature;BME280_humidity;BME280_pressure;Samples;Min_cycle;Max_cycle;Signal;HPM_P1;HPM_P2
2023/09/16 00:01:02;;;;;;;8.65;5.45;;;15.90;99.90;;;;;;5105430;28;20418;-85
2023/09/16 00:03:27;;;;;;;10.60;6.00;;;15.80;99.90;;;;;;5107581;27;20039;-84
2023/09/16 00:05:53;;;;;;;10.15;6.72;;;15.70;99.90;;;;;;5105044;28;20103;-85
2023/09/16 00:08:18;;;;;;;14.98;6.53;;;15.60;99.90;;;;;;5103868;28;20064;-84
2023/09/16 00:10:44;;;;;;;9.70;6.50;;;15.40;99.90;;;;;;5103403;28;20037;-85
2023/09/16 00:13:10;;;;;;;20.48;6.95;;;15.30;99.90;;;;;;5106352;27;20020;-84
2023/09/16 00:15:35;;;;;;;10.30;5.35;;;15.20;99.90;;;;;;5103887;28;20020;-84
2023/09/16 00:18:01;;;;;;;6.90;5.28;;;15.10;99.90;;;;;;5107286;28;20019;-85
2023/09/16 00:20:29;;;;;;;12.77;5.82;;;15.10;99.90;;;;;;5104902;27;20392;-85
2023/09/16 00:22:55;;;;;;;13.07;6.53;;;15.10;99.90;;;;;;5099561;28;20027;-86
2023/09/16 00:25:20;;;;;;;18.08;7.35;;;15.10;99.90;;;;;;5103641;28;20019;-86
2023/09/16 00:27:46;;;;;;;11.68;6.65;;;15.00;99.90;;;;;;5099771;28;20075;-86
2023/09/16 00:30:12;;;;;;;11.88;6.95;;;15.00;99.90;;;;;;5104435;28;20083;-86
2023/09/16 00:32:37;;;;;;;13.48;7.70;;;14.90;99.90;;;;;;5106166;28;20028;-85
2023/09/16 00:35:04;;;;;;;10.55;7.47;;;14.80;99.90;;;;;;5105504;28;20023;-85
2023/09/16 00:37:30;;;;;;;11.60;7.68;;;14.70;99.90;;;;;;5108251;27;20039;-86
2023/09/16 00:39:56;;;;;;;16.73;9.02;;;14.70;99.90;;;;;;5103842;28;20554;-85
2023/09/16 00:42:21;;;;;;;11.75;8.23;;;14.60;99.90;;;;;;5103729;28;20031;-85
2023/09/16 00:44:47;;;;;;;13.32;8.38;;;14.60;99.90;;;;;;5099380;28;20050;-85
2023/09/16 00:47:13;;;;;;;15.95;7.90;;;14.60;99.90;;;;;;5103152;28;20525;-86
2023/09/16 00:49:41;;;;;;;14.23;8.35;;;14.50;99.90;;;;;;5105621;28;20038;-86
2023/09/16 00:52:07;;;;;;;14.13;8.70;;;14.50;99.90;;;;;;5104534;28;20055;-86
2023/09/16 00:54:33;;;;;;;18.65;9.23;;;14.50;99.90;;;;;;5103374;28;20245;-85
2023/09/16 00:57:01;;;;;;;16.10;8.07;;;14.50;99.90;;;;;;5104552;28;20483;-86
2023/09/16 00:59:28;;;;;;;11.65;8.57;;;14.50;99.90;;;;;;5098680;28;20027;-85
2023/09/16 01:01:55;;;;;;;11.13;7.72;;;14.50;99.90;;;;;;5106037;28;20047;-85
2023/09/16 01:04:24;;;;;;;20.60;9.07;;;14.50;99.90;;;;;;5083698;28;20043;-85
2023/09/16 01:06:51;;;;;;;15.18;8.05;;;14.40;99.90;;;;;;5099443;28;20039;-85
2023/09/16 01:09:20;;;;;;;7.93;6.25;;;14.40;99.90;;;;;;5103206;28;20045;-86
2023/09/16 01:11:47;;;;;;;9.43;6.65;;;14.40;99.90;;;;;;5106514;27;20027;-85
2023/09/16 01:14:13;;;;;;;10.07;5.85;;;14.30;99.90;;;;;;5104996;28;20019;-85
2023/09/16 01:16:49;;;;;;;11.48;6.45;;;14.30;99.90;;;;;;5103577;28;20028;-86
2023/09/16 01:19:21;;;;;;;11.88;7.75;;;14.30;99.90;;;;;;5099969;27;20027;-86
2023/09/16 01:21:48;;;;;;;14.25;7.07;;;14.30;99.90;;;;;;5098295;27;20054;-86
2023/09/16 01:24:18;;;;;;;11.15;7.35;;;14.30;99.90;;;;;;5103215;28;20034;-86
2023/09/16 01:26:45;;;;;;;12.77;7.22;;;14.20;99.90;;;;;;5104391;28;20263;-86
2023/09/16 01:29:11;;;;;;;13.82;7.55;;;14.20;99.90;;;;;;5105832;27;20049;-83
2023/09/16 01:31:38;;;;;;;12.80;6.97;;;14.10;99.90;;;;;;5099926;28;20027;-83
2023/09/16 01:34:13;;;;;;;12.02;6.45;;;14.10;99.90;;;;;;5103051;28;20076;-83
2023/09/16 01:36:41;;;;;;;8.60;6.20;;;14.00;99.90;;;;;;5100800;28;20022;-83
2023/09/16 01:39:08;;;;;;;14.20;7.38;;;14.10;99.90;;;;;;5101774;28;20524;-83
2023/09/16 01:41:36;;;;;;;13.48;7.00;;;14.00;99.90;;;;;;5105144;28;20020;-83
2023/09/16 01:44:03;;;;;;;17.10;6.90;;;14.00;99.90;;;;;;5104753;28;20503;-83
2023/09/16 01:46:28;;;;;;;15.70;6.90;;;13.90;99.90;;;;;;5103388;27;20026;-83
2023/09/16 01:48:57;;;;;;;10.80;7.40;;;13.90;99.90;;;;;;5101020;28;20020;-85
2023/09/16 01:51:24;;;;;;;10.13;6.80;;;13.90;99.90;;;;;;5099345;28;20024;-83
2023/09/16 01:53:54;;;;;;;12.55;6.88;;;13.80;99.90;;;;;;5103440;28;20023;-83
2023/09/16 01:56:21;;;;;;;10.77;6.82;;;13.70;99.90;;;;;;5104923;28;20431;-85
2023/09/16 01:58:47;;;;;;;9.50;6.93;;;13.60;99.90;;;;;;5099681;28;20031;-83
2023/09/16 02:01:12;;;;;;;10.70;7.93;;;13.60;99.90;;;;;;5103707;28;20102;-83
2023/09/16 02:03:38;;;;;;;9.88;6.90;;;13.60;99.90;;;;;;5097348;27;20024;-83
2023/09/16 02:06:06;;;;;;;9.65;6.72;;;13.50;99.90;;;;;;5100045;28;20016;-83
2023/09/16 02:08:31;;;;;;;11.77;7.75;;;13.50;99.90;;;;;;5102651;28;20034;-83
2023/09/16 02:10:57;;;;;;;12.25;6.68;;;13.50;99.90;;;;;;5100485;28;20020;-83
2023/09/16 02:13:23;;;;;;;10.23;6.90;;;13.50;99.90;;;;;;5102738;28;20525;-83
2023/09/16 02:15:48;;;;;;;6.78;5.57;;;13.50;99.90;;;;;;5100276;28;20030;-83
2023/09/16 02:18:14;;;;;;;15.25;8.15;;;13.50;99.90;;;;;;5102061;28;20023;-84
2023/09/16 02:20:40;;;;;;;10.10;6.18;;;13.40;99.90;;;;;;5096110;28;20546;-86
2023/09/16 02:23:06;;;;;;;15.32;8.13;;;13.40;99.90;;;;;;5099329;28;20027;-83
2023/09/16 02:25:35;;;;;;;11.50;6.95;;;13.40;99.90;;;;;;5100662;28;20433;-83
2023/09/16 02:28:01;;;;;;;11.40;7.00;;;13.40;99.90;;;;;;5104092;28;20034;-83
2023/09/16 02:30:27;;;;;;;15.88;7.85;;;13.30;99.90;;;;;;5103923;28;20015;-83
2023/09/16 02:32:52;;;;;;;10.27;6.55;;;13.30;99.90;;;;;;5096300;28;20435;-83
2023/09/16 02:35:24;;;;;;;11.75;6.93;;;13.30;99.90;;;;;;5103782;28;20061;-83
2023/09/16 02:37:51;;;;;;;13.23;8.63;;;13.20;99.90;;;;;;5100739;28;20282;-84
2023/09/16 02:40:16;;;;;;;18.20;10.73;;;13.20;99.90;;;;;;5101438;28;20023;-83
2023/09/16 02:42:42;;;;;;;12.82;8.57;;;13.20;99.90;;;;;;5102536;28;20084;-83
2023/09/16 02:45:08;;;;;;;12.85;7.93;;;13.20;99.90;;;;;;5104353;28;20081;-83
2023/09/16 02:47:33;;;;;;;8.35;6.57;;;13.20;99.90;;;;;;5100555;28;20024;-83
2023/09/16 02:50:01;;;;;;;14.52;6.45;;;13.20;99.90;;;;;;5101698;28;20444;-84
2023/09/16 02:52:27;;;;;;;11.18;6.90;;;13.20;99.90;;;;;;5102905;28;20484;-83
2023/09/16 02:54:52;;;;;;;13.02;7.93;;;13.20;99.90;;;;;;5100104;28;20031;-83
2023/09/16 02:57:18;;;;;;;12.77;7.22;;;13.20;99.90;;;;;;5103668;28;20417;-83
2023/09/16 02:59:45;;;;;;;12.00;7.80;;;13.10;99.90;;;;;;5101856;28;20529;-84
2023/09/16 03:02:10;;;;;;;11.73;7.88;;;13.10;99.90;;;;;;5101005;28;20608;-83
2023/09/16 03:04:36;;;;;;;9.77;7.03;;;13.00;99.90;;;;;;5102909;28;20031;-83
2023/09/16 03:07:02;;;;;;;10.70;6.57;;;13.00;99.90;;;;;;5103806;28;20020;-83
2023/09/16 03:09:27;;;;;;;11.32;6.90;;;12.90;99.90;;;;;;5102962;28;20046;-83
2023/09/16 03:11:53;;;;;;;11.18;7.25;;;12.90;99.90;;;;;;5101037;28;20369;-83
2023/09/16 03:14:18;;;;;;;10.65;7.55;;;12.90;99.90;;;;;;5100878;28;20955;-83
2023/09/16 03:16:45;;;;;;;13.10;7.50;;;12.90;99.90;;;;;;5096622;28;20096;-83
2023/09/16 03:19:11;;;;;;;14.60;7.95;;;12.90;99.90;;;;;;5100314;28;20061;-84
2023/09/16 03:21:36;;;;;;;14.60;8.10;;;12.90;99.90;;;;;;5101114;28;20477;-85
2023/09/16 03:24:02;;;;;;;12.90;7.72;;;12.80;99.90;;;;;;5098983;28;20077;-85
2023/09/16 03:26:28;;;;;;;14.60;7.75;;;12.80;99.90;;;;;;5099020;28;20036;-85
2023/09/16 03:28:54;;;;;;;17.55;8.88;;;12.80;99.90;;;;;;5100423;28;20027;-85
2023/09/16 03:31:20;;;;;;;13.50;8.32;;;12.80;99.90;;;;;;5100572;28;20026;-86
2023/09/16 03:33:46;;;;;;;11.18;8.13;;;12.80;99.90;;;;;;5104039;28;20114;-84
2023/09/16 03:36:11;;;;;;;10.20;7.65;;;12.70;99.90;;;;;;5104401;27;20030;-85
2023/09/16 03:38:45;;;;;;;13.35;7.63;;;12.70;99.90;;;;;;5104092;28;20073;-85
2023/09/16 03:41:11;;;;;;;13.77;7.03;;;12.70;99.90;;;;;;5104888;28;20020;-85
2023/09/16 03:43:37;;;;;;;14.15;8.25;;;12.60;99.90;;;;;;5101606;28;20038;-85
2023/09/16 03:46:02;;;;;;;11.75;7.53;;;12.60;99.90;;;;;;5103715;28;20028;-85
2023/09/16 03:48:28;;;;;;;15.07;6.70;;;12.60;99.90;;;;;;5102284;28;20348;-85
2023/09/16 03:50:53;;;;;;;10.68;6.55;;;12.60;99.90;;;;;;5107718;28;20020;-85
2023/09/16 03:53:22;;;;;;;9.00;6.53;;;12.60;99.90;;;;;;5107682;28;20046;-85
2023/09/16 03:55:47;;;;;;;8.20;6.13;;;12.70;99.90;;;;;;5105108;27;20034;-85
2023/09/16 03:58:13;;;;;;;12.60;6.85;;;12.60;99.90;;;;;;5105014;28;20019;-85
2023/09/16 04:00:39;;;;;;;11.02;7.07;;;12.70;99.90;;;;;;5101317;28;20043;-85
2023/09/16 04:03:04;;;;;;;11.68;7.07;;;12.60;99.90;;;;;;5108132;28;20067;-85
2023/09/16 04:05:30;;;;;;;10.98;6.90;;;12.60;99.90;;;;;;5106220;28;20054;-86
2023/09/16 04:07:55;;;;;;;7.63;6.25;;;12.60;99.90;;;;;;5106580;28;20509;-85
2023/09/16 04:10:21;;;;;;;8.55;5.57;;;12.60;99.90;;;;;;5108226;28;20468;-84
2023/09/16 04:12:47;;;;;;;11.85;7.07;;;12.60;99.90;;;;;;5106771;28;20040;-86
2023/09/16 04:15:12;;;;;;;10.43;6.97;;;12.50;99.90;;;;;;5105829;28;20035;-85
2023/09/16 04:17:38;;;;;;;20.25;7.90;;;12.50;99.90;;;;;;5106439;28;20389;-85
2023/09/16 04:20:05;;;;;;;9.55;6.45;;;12.50;99.90;;;;;;5106511;28;20043;-84
2023/09/16 04:22:32;;;;;;;12.48;6.10;;;12.50;99.90;;;;;;5106023;28;20137;-84
2023/09/16 04:24:57;;;;;;;9.82;6.80;;;12.50;99.90;;;;;;5107169;28;20053;-85
2023/09/16 04:27:23;;;;;;;6.68;5.63;;;12.50;99.90;;;;;;5104218;28;20027;-86
2023/09/16 04:29:49;;;;;;;9.52;6.22;;;12.40;99.90;;;;;;5106069;27;20030;-85
2023/09/16 04:32:17;;;;;;;11.23;6.18;;;12.40;99.90;;;;;;5109393;28;20067;-85
2023/09/16 04:34:43;;;;;;;9.02;6.05;;;12.40;99.90;;;;;;5108501;28;20039;-85
2023/09/16 04:37:08;;;;;;;10.82;6.53;;;12.40;99.90;;;;;;5108266;28;20460;-85
2023/09/16 04:39:34;;;;;;;7.65;5.32;;;12.40;99.90;;;;;;5103144;28;20216;-85
2023/09/16 04:42:02;;;;;;;10.80;5.88;;;12.40;99.90;;;;;;5106942;28;20013;-85
2023/09/16 04:44:28;;;;;;;5.72;4.65;;;12.40;99.90;;;;;;5086088;28;20038;-85
2023/09/16 04:46:54;;;;;;;8.32;5.72;;;12.40;99.90;;;;;;5105394;27;20068;-84
2023/09/16 04:49:23;;;;;;;11.50;5.28;;;12.40;99.90;;;;;;5104561;28;20059;-84
2023/09/16 04:51:49;;;;;;;7.97;5.25;;;12.40;99.90;;;;;;5105596;27;20566;-84
2023/09/16 04:54:14;;;;;;;9.18;5.75;;;12.40;99.90;;;;;;5086257;28;20422;-85
2023/09/16 04:56:43;;;;;;;10.15;6.10;;;12.40;99.90;;;;;;5102940;28;20031;-85
2023/09/16 04:59:08;;;;;;;8.90;5.95;;;12.40;99.90;;;;;;5087173;28;20384;-85
2023/09/16 05:01:34;;;;;;;9.25;5.85;;;12.40;99.90;;;;;;5104980;28;20457;-85
2023/09/16 05:04:03;;;;;;;7.03;5.57;;;12.40;99.90;;;;;;5099258;27;20047;-86
2023/09/16 05:06:28;;;;;;;10.27;6.60;;;12.40;99.90;;;;;;5104930;28;20027;-85
2023/09/16 05:08:54;;;;;;;8.63;6.60;;;12.40;99.90;;;;;;5106452;28;20027;-84
2023/09/16 05:11:20;;;;;;;9.90;6.13;;;12.30;99.90;;;;;;5103075;28;20083;-85
2023/09/16 05:13:45;;;;;;;9.27;6.10;;;12.40;99.90;;;;;;5103015;28;20475;-84
2023/09/16 05:16:11;;;;;;;13.32;7.22;;;12.30;99.90;;;;;;5106747;28;20255;-85
2023/09/16 05:18:37;;;;;;;8.40;6.28;;;12.30;99.90;;;;;;5107851;28;20043;-85
2023/09/16 05:21:03;;;;;;;11.93;6.70;;;12.40;99.90;;;;;;5105480;28;20097;-85
2023/09/16 05:23:34;;;;;;;9.27;6.05;;;12.30;99.90;;;;;;5101500;28;20373;-84
2023/09/16 05:26:00;;;;;;;11.68;5.78;;;12.30;99.90;;;;;;5103425;28;20024;-84
2023/09/16 05:28:27;;;;;;;18.83;6.63;;;12.30;99.90;;;;;;5103627;28;20028;-85
2023/09/16 05:30:57;;;;;;;9.50;6.80;;;12.30;99.90;;;;;;5101807;27;20023;-84
2023/09/16 05:33:25;;;;;;;13.43;6.60;;;12.30;99.90;;;;;;5102027;28;20023;-84
2023/09/16 05:35:51;;;;;;;9.95;6.32;;;12.30;99.90;;;;;;5101355;28;20131;-84
2023/09/16 05:38:17;;;;;;;7.05;5.85;;;12.40;99.90;;;;;;5098807;28;20160;-84
2023/09/16 05:40:43;;;;;;;11.20;6.88;;;12.40;99.90;;;;;;5107001;28;20031;-84
2023/09/16 05:43:08;;;;;;;15.35;8.90;;;12.40;99.90;;;;;;5105474;28;20782;-84
2023/09/16 05:45:36;;;;;;;12.25;7.75;;;12.50;99.90;;;;;;5105528;28;20109;-84
2023/09/16 05:48:02;;;;;;;12.85;7.25;;;12.50;99.90;;;;;;5097749;28;20026;-83
2023/09/16 05:50:29;;;;;;;9.45;7.18;;;12.50;99.90;;;;;;5087560;28;20031;-85
2023/09/16 05:52:54;;;;;;;12.57;7.55;;;12.50;99.90;;;;;;5106397;28;20020;-84
2023/09/16 05:55:20;;;;;;;8.90;6.95;;;12.60;99.90;;;;;;5107778;28;20016;-85
2023/09/16 05:57:46;;;;;;;11.80;5.78;;;12.60;99.90;;;;;;5104714;28;20468;-85
2023/09/16 06:00:12;;;;;;;10.05;6.25;;;12.60;99.90;;;;;;5104122;28;20031;-84
2023/09/16 06:02:39;;;;;;;8.45;5.55;;;12.70;99.90;;;;;;5102371;28;20027;-84
2023/09/16 06:05:08;;;;;;;8.82;5.68;;;12.80;99.90;;;;;;5106759;28;20455;-85
2023/09/16 06:07:41;;;;;;;6.85;5.43;;;12.80;99.90;;;;;;5087156;28;20519;-85
2023/09/16 06:10:08;;;;;;;9.23;5.40;;;12.90;99.90;;;;;;5106813;28;20020;-85
2023/09/16 06:12:35;;;;;;;11.65;6.35;;;12.90;99.90;;;;;;5107102;28;20253;-84
2023/09/16 06:15:01;;;;;;;7.55;5.63;;;13.00;99.90;;;;;;5101689;28;20015;-86
2023/09/16 06:17:26;;;;;;;12.13;6.53;;;13.00;99.90;;;;;;5101191;28;20108;-85
2023/09/16 06:19:54;;;;;;;7.03;5.55;;;13.10;99.90;;;;;;5104068;28;20020;-85
2023/09/16 06:22:22;;;;;;;16.73;7.00;;;13.10;99.90;;;;;;5105816;28;20187;-85
2023/09/16 06:24:50;;;;;;;15.32;6.45;;;13.20;99.90;;;;;;5105412;28;20043;-85
2023/09/16 06:27:16;;;;;;;10.77;7.05;;;13.20;99.90;;;;;;5107824;28;20015;-85
2023/09/16 06:29:43;;;;;;;9.98;6.55;;;13.30;99.90;;;;;;5103031;28;20075;-85
2023/09/16 06:32:08;;;;;;;8.75;6.70;;;13.40;99.90;;;;;;5102555;28;20019;-84
2023/09/16 06:34:35;;;;;;;15.38;8.38;;;13.40;99.90;;;;;;5101465;28;20122;-84
2023/09/16 06:37:02;;;;;;;16.20;8.15;;;13.50;99.90;;;;;;5094902;28;20019;-85
2023/09/16 06:39:28;;;;;;;12.43;8.95;;;13.50;99.90;;;;;;5097125;27;20069;-83
2023/09/16 06:41:54;;;;;;;11.20;8.20;;;13.60;99.90;;;;;;5094417;28;20019;-85
2023/09/16 06:44:19;;;;;;;16.70;9.70;;;13.70;99.90;;;;;;5103700;28;20088;-86
2023/09/16 06:46:45;;;;;;;15.85;9.15;;;13.70;99.90;;;;;;5103963;28;20020;-86
2023/09/16 06:49:10;;;;;;;9.35;6.85;;;13.90;99.90;;;;;;5103315;28;20025;-86
2023/09/16 06:51:36;;;;;;;10.55;6.80;;;14.00;99.90;;;;;;5100519;28;20028;-85
2023/09/16 06:54:01;;;;;;;13.82;7.68;;;14.10;99.90;;;;;;5103101;28;20034;-89
2023/09/16 06:59:37;;;;;;;14.40;8.95;;;14.20;99.90;;;;;;5061146;28;20036;-85
2023/09/16 07:02:03;;;;;;;14.32;9.52;;;14.30;99.90;;;;;;5101614;28;20024;-85
2023/09/16 07:04:29;;;;;;;19.25;9.73;;;14.30;99.90;;;;;;5081259;28;20039;-85
2023/09/16 07:06:57;;;;;;;15.50;8.68;;;14.40;99.90;;;;;;5105133;28;20106;-87
2023/09/16 07:09:23;;;;;;;12.75;9.23;;;14.50;99.90;;;;;;5101985;28;20036;-85
2023/09/16 07:11:49;;;;;;;14.35;8.10;;;14.50;99.90;;;;;;5102499;28;20480;-85
2023/09/16 07:14:14;;;;;;;12.60;7.68;;;14.60;99.90;;;;;;5109449;28;20484;-85
2023/09/16 07:16:40;;;;;;;12.65;6.75;;;14.70;99.90;;;;;;5107826;28;20027;-84
2023/09/16 07:19:07;;;;;;;10.45;6.50;;;14.70;99.90;;;;;;5107001;28;20024;-84
2023/09/16 07:21:34;;;;;;;10.25;6.57;;;14.70;99.90;;;;;;5101176;28;20138;-85
2023/09/16 07:24:01;;;;;;;7.60;5.90;;;14.80;99.90;;;;;;5105529;28;20077;-84
2023/09/16 07:26:28;;;;;;;11.45;6.30;;;14.90;99.90;;;;;;5106660;28;20043;-84
2023/09/16 07:28:55;;;;;;;9.23;5.82;;;14.90;99.90;;;;;;5107717;28;20046;-84
2023/09/16 07:31:20;;;;;;;9.38;6.35;;;15.00;99.90;;;;;;5108534;28;20024;-84
2023/09/16 07:33:47;;;;;;;12.48;6.43;;;15.00;99.90;;;;;;5107333;28;20479;-84
2023/09/16 07:36:13;;;;;;;11.45;8.38;;;15.10;99.90;;;;;;5106623;28;20134;-85
2023/09/16 07:38:41;;;;;;;10.18;7.45;;;15.10;99.90;;;;;;5105797;28;20047;-84
2023/09/16 07:41:07;;;;;;;7.03;5.90;;;15.20;99.90;;;;;;5106081;28;20027;-84
2023/09/16 07:43:33;;;;;;;10.93;6.63;;;15.20;99.90;;;;;;5106786;28;20513;-85
2023/09/16 07:45:59;;;;;;;9.48;7.13;;;15.30;99.90;;;;;;5107994;28;20023;-85
2023/09/16 07:48:25;;;;;;;9.05;7.18;;;15.30;99.90;;;;;;5098184;28;20232;-85
2023/09/16 07:50:54;;;;;;;8.68;6.30;;;15.30;99.90;;;;;;5105238;28;20023;-85
2023/09/16 07:53:22;;;;;;;7.78;6.28;;;15.30;99.90;;;;;;5105873;28;20035;-84
2023/09/16 07:55:48;;;;;;;12.95;6.60;;;15.40;99.90;;;;;;5105213;28;20088;-85
2023/09/16 07:58:13;;;;;;;8.65;6.55;;;15.40;99.90;;;;;;5103606;28;20106;-85
2023/09/16 08:00:39;;;;;;;12.65;7.07;;;15.40;99.90;;;;;;5106639;28;20034;-85
2023/09/16 08:03:06;;;;;;;10.90;6.75;;;15.50;99.90;;;;;;5107130;28;20517;-85
2023/09/16 08:05:32;;;;;;;14.20;8.55;;;15.50;99.90;;;;;;5100231;28;20039;-85
2023/09/16 08:07:57;;;;;;;13.18;8.70;;;15.60;99.90;;;;;;5106645;28;20055;-85
2023/09/16 08:10:23;;;;;;;13.75;9.40;;;15.60;99.90;;;;;;5103915;28;20345;-85
2023/09/16 08:12:48;;;;;;;23.08;9.18;;;15.70;99.90;;;;;;5104304;28;20032;-84
2023/09/16 08:15:14;;;;;;;13.10;8.25;;;15.70;99.90;;;;;;5106757;28;20107;-85
2023/09/16 08:17:40;;;;;;;15.75;8.95;;;15.80;99.90;;;;;;5106694;28;20051;-84
2023/09/16 08:20:09;;;;;;;12.52;8.45;;;15.80;99.90;;;;;;5104314;28;20122;-84
2023/09/16 08:22:35;;;;;;;11.20;8.68;;;15.80;99.90;;;;;;5095981;28;20020;-84
2023/09/16 08:25:04;;;;;;;12.73;7.60;;;15.90;99.90;;;;;;5105675;28;20072;-84
2023/09/16 08:27:30;;;;;;;13.27;7.75;;;16.00;99.90;;;;;;5102912;28;20023;-85
2023/09/16 08:29:56;;;;;;;16.23;9.00;;;16.00;99.90;;;;;;5108118;28;20023;-85
2023/09/16 08:32:28;;;;;;;10.20;8.43;;;16.10;99.90;;;;;;5104067;28;20114;-85
2023/09/16 08:34:56;;;;;;;11.95;8.55;;;16.20;99.90;;;;;;5099446;28;20030;-85
2023/09/16 08:37:21;;;;;;;18.58;8.75;;;16.30;99.90;;;;;;5107472;28;20047;-84
2023/09/16 08:39:47;;;;;;;16.77;12.35;;;16.30;99.90;;;;;;5105369;28;20630;-85
2023/09/16 08:42:33;;;;;;;9.13;7.68;;;16.50;99.90;;;;;;5105816;28;20032;-85
2023/09/16 08:45:03;;;;;;;12.45;7.78;;;16.50;99.90;;;;;;5100281;28;20032;-85
2023/09/16 08:47:44;;;;;;;13.10;8.02;;;16.60;99.90;;;;;;5105514;28;20418;-86
2023/09/16 08:50:11;;;;;;;14.10;8.20;;;16.80;99.90;;;;;;5105071;28;20020;-85
2023/09/16 08:52:48;;;;;;;11.93;8.45;;;16.80;99.90;;;;;;5098319;28;20119;-84
2023/09/16 08:55:16;;;;;;;15.18;8.35;;;16.90;99.90;;;;;;5103688;28;20476;-85
2023/09/16 08:57:52;;;;;;;14.05;8.05;;;17.00;99.90;;;;;;5107005;28;20035;-83
2023/09/16 09:00:19;;;;;;;8.88;7.60;;;17.10;99.90;;;;;;5101678;28;20053;-84
2023/09/16 09:02:48;;;;;;;11.32;7.18;;;17.20;99.90;;;;;;5103181;28;20614;-84
2023/09/16 09:05:16;;;;;;;13.30;8.32;;;17.30;99.90;;;;;;5102864;28;20114;-85
2023/09/16 09:07:42;;;;;;;16.23;8.38;;;17.40;99.90;;;;;;5104497;28;20059;-85
2023/09/16 09:10:12;;;;;;;23.10;9.88;;;17.50;99.90;;;;;;5099991;28;20365;-84
2023/09/16 09:12:40;;;;;;;12.57;8.25;;;17.60;99.90;;;;;;5104852;28;20026;-83
2023/09/16 09:15:13;;;;;;;19.83;8.90;;;17.70;99.90;;;;;;5105211;28;20028;-87
2023/09/16 09:17:59;;;;;;;18.23;8.30;;;17.70;99.90;;;;;;5094984;28;20376;-85
2023/09/16 09:20:39;;;;;;;13.88;7.80;;;17.80;99.90;;;;;;5100012;28;20341;-84
2023/09/16 09:23:07;;;;;;;20.75;7.70;;;17.90;99.90;;;;;;5085629;28;20064;-83
2023/09/16 09:25:36;;;;;;;10.80;6.28;;;18.00;99.90;;;;;;5099120;28;20244;-84
2023/09/16 09:28:03;;;;;;;9.13;5.65;;;18.00;99.90;;;;;;5104100;28;20359;-85
2023/09/16 09:30:31;;;;;;;11.05;6.75;;;18.20;99.90;;;;;;5104805;28;20055;-85
2023/09/16 09:32:58;;;;;;;10.15;5.80;;;18.20;99.90;;;;;;5104068;28;20051;-85
2023/09/16 09:35:31;;;;;;;8.00;5.63;;;18.40;99.90;;;;;;5104033;28;20432;-85
2023/09/16 09:37:58;;;;;;;7.18;5.30;;;18.50;99.90;;;;;;5096621;28;20039;-85
2023/09/16 09:40:25;;;;;;;6.90;5.53;;;18.60;99.90;;;;;;5106127;28;20457;-85
2023/09/16 09:42:52;;;;;;;8.88;5.82;;;18.70;99.90;;;;;;5096722;28;20051;-85
2023/09/16 09:45:20;;;;;;;7.45;4.85;;;18.90;99.90;;;;;;5096480;28;20020;-85
2023/09/16 09:47:47;;;;;;;9.90;4.38;;;19.00;99.90;;;;;;5094023;28;20467;-85
2023/09/16 09:50:15;;;;;;;6.93;4.28;;;19.10;99.90;;;;;;5103415;28;20083;-85
2023/09/16 09:53:00;;;;;;;7.55;4.07;;;19.20;99.90;;;;;;5102875;28;20106;-85
2023/09/16 09:55:30;;;;;;;8.18;4.28;;;19.30;99.90;;;;;;5097470;28;20050;-86
2023/09/16 09:57:56;;;;;;;7.10;4.20;;;19.40;99.90;;;;;;5102167;28;20487;-85
2023/09/16 10:00:23;;;;;;;7.28;4.15;;;19.50;99.90;;;;;;5084480;28;20028;-85
2023/09/16 10:02:50;;;;;;;8.10;3.50;;;19.50;99.90;;;;;;5102654;28;20019;-85
2023/09/16 10:05:16;;;;;;;6.10;3.40;;;19.60;99.90;;;;;;5103575;28;20068;-86
2023/09/16 10:07:43;;;;;;;5.75;3.58;;;19.60;99.90;;;;;;5096513;28;20052;-86
2023/09/16 10:10:20;;;;;;;6.03;3.90;;;19.80;99.90;;;;;;5103008;28;20031;-84
2023/09/16 10:12:47;;;;;;;5.80;3.25;;;19.90;99.90;;;;;;5105942;28;20039;-86
2023/09/16 10:15:14;;;;;;;7.35;3.55;;;19.90;99.90;;;;;;5104646;28;20028;-86
2023/09/16 10:17:42;;;;;;;3.83;3.17;;;20.00;99.90;;;;;;5102931;28;20020;-84
2023/09/16 10:20:10;;;;;;;3.40;3.10;;;20.10;99.90;;;;;;5102405;28;20047;-85
2023/09/16 10:22:40;;;;;;;4.88;3.40;;;20.20;99.90;;;;;;5098191;28;20023;-86
2023/09/16 10:25:06;;;;;;;5.07;3.10;;;20.30;99.90;;;;;;5105620;28;20039;-84
2023/09/16 10:27:37;;;;;;;7.05;3.33;;;20.40;99.90;;;;;;5101437;28;20031;-85
2023/09/16 10:30:04;;;;;;;5.57;3.30;;;20.50;99.90;;;;;;5095643;28;20028;-85
2023/09/16 10:32:30;;;;;;;8.10;3.35;;;20.60;99.90;;;;;;5096419;28;20018;-86
2023/09/16 10:35:02;;;;;;;5.15;3.00;;;20.70;99.90;;;;;;5102543;28;20039;-86
2023/09/16 10:37:29;;;;;;;4.82;3.17;;;20.80;99.90;;;;;;5097032;28;20448;-87
2023/09/16 10:39:56;;;;;;;4.15;3.00;;;20.90;99.90;;;;;;5105496;28;20023;-84
2023/09/16 10:42:22;;;;;;;4.18;3.20;;;21.00;99.90;;;;;;5081359;28;20022;-84
2023/09/16 10:44:48;;;;;;;3.00;2.42;;;21.10;99.90;;;;;;5100996;28;20131;-82
2023/09/16 10:47:16;;;;;;;4.03;2.75;;;21.20;99.90;;;;;;5102795;28;20595;-84
2023/09/16 10:49:46;;;;;;;4.72;2.85;;;21.20;99.90;;;;;;5101585;28;20406;-83
2023/09/16 10:52:16;;;;;;;3.15;2.78;;;21.30;99.90;;;;;;5101898;28;20076;-85
2023/09/16 10:54:56;;;;;;;4.85;2.97;;;21.50;99.90;;;;;;5103725;28;20440;-84
2023/09/16 10:57:30;;;;;;;5.10;2.40;;;21.50;99.90;;;;;;5104610;28;20103;-84
2023/09/16 10:59:59;;;;;;;3.58;2.47;;;21.50;99.90;;;;;;5100940;28;20513;-85
2023/09/16 11:03:00;;;;;;;6.15;2.38;;;21.60;99.90;;;;;;5102610;28;20016;-84
2023/09/16 11:05:26;;;;;;;3.85;2.10;;;21.60;99.90;;;;;;5098854;28;20119;-86
2023/09/16 11:07:54;;;;;;;4.35;2.33;;;21.70;99.90;;;;;;5102492;28;20395;-84
2023/09/16 11:10:23;;;;;;;7.32;2.47;;;21.70;99.90;;;;;;5085197;28;20031;-84
2023/09/16 11:12:49;;;;;;;5.75;2.25;;;21.80;99.90;;;;;;5096568;28;21055;-85
2023/09/16 11:15:16;;;;;;;2.25;2.05;;;21.90;99.90;;;;;;5104556;28;20023;-84
2023/09/16 11:17:43;;;;;;;3.50;2.20;;;21.90;99.90;;;;;;5095071;28;20031;-85
2023/09/16 11:20:18;;;;;;;3.15;2.47;;;21.90;99.90;;;;;;5102765;28;20353;-84
2023/09/16 11:22:47;;;;;;;4.43;2.53;;;21.90;99.90;;;;;;5098682;28;20095;-84
2023/09/16 11:25:14;;;;;;;7.57;2.45;;;21.90;99.90;;;;;;5104453;28;20316;-85
2023/09/16 11:27:40;;;;;;;5.57;2.47;;;22.00;99.90;;;;;;5104287;28;20016;-84
2023/09/16 11:30:13;;;;;;;3.33;2.30;;;22.20;99.90;;;;;;5104035;28;20027;-85
2023/09/16 11:32:57;;;;;;;5.88;3.08;;;22.30;99.90;;;;;;5102851;28;20019;-84
2023/09/16 11:35:28;;;;;;;3.53;2.53;;;22.40;99.90;;;;;;5098182;28;20509;-84
2023/09/16 11:37:57;;;;;;;4.70;2.58;;;22.50;99.90;;;;;;5102466;28;20051;-85
2023/09/16 11:40:27;;;;;;;7.40;2.75;;;22.50;99.90;;;;;;5104847;28;20028;-85
2023/09/16 11:42:54;;;;;;;3.25;2.53;;;22.60;99.90;;;;;;5094126;28;20023;-86
2023/09/16 11:45:21;;;;;;;3.60;2.42;;;22.70;99.90;;;;;;5103249;28;20024;-85
2023/09/16 11:47:48;;;;;;;4.50;2.35;;;22.80;99.90;;;;;;5102575;28;20034;-83
2023/09/16 11:50:25;;;;;;;3.80;2.15;;;22.90;99.90;;;;;;5101514;28;20020;-84
2023/09/16 11:52:51;;;;;;;3.42;2.67;;;23.00;99.90;;;;;;5102311;28;20371;-87
2023/09/16 11:55:17;;;;;;;5.68;2.22;;;23.00;99.90;;;;;;5108511;28;20023;-84
2023/09/16 11:57:45;;;;;;;3.50;2.45;;;23.00;99.90;;;;;;5105782;28;20019;-85
2023/09/16 12:00:12;;;;;;;3.17;2.42;;;23.00;99.90;;;;;;5102885;28;20460;-86
2023/09/16 12:02:38;;;;;;;2.08;1.85;;;23.00;99.90;;;;;;5105405;28;20024;-84
2023/09/16 12:05:05;;;;;;;4.15;2.50;;;23.00;99.90;;;;;;5099009;28;20234;-84
2023/09/16 12:07:31;;;;;;;3.72;2.33;;;23.00;99.90;;;;;;5104531;28;20020;-85
2023/09/16 12:09:59;;;;;;;5.20;2.03;;;23.00;99.90;;;;;;5107758;28;20020;-85
2023/09/16 12:12:28;;;;;;;2.88;2.42;;;23.00;99.90;;;;;;5101501;28;20019;-86
2023/09/16 12:14:53;;;;;;;5.88;2.97;;;23.00;99.90;;;;;;5101817;28;20039;-84
2023/09/16 12:17:19;;;;;;;2.28;2.05;;;23.10;99.90;;;;;;5105413;28;20690;-84
2023/09/16 12:19:55;;;;;;;2.92;2.55;;;23.30;99.90;;;;;;5105474;28;20565;-85
2023/09/16 12:22:21;;;;;;;3.00;1.95;;;23.40;99.90;;;;;;5100778;28;20037;-84
2023/09/16 12:24:47;;;;;;;2.72;2.20;;;23.70;99.90;;;;;;5104988;28;20509;-83
2023/09/16 12:27:13;;;;;;;4.65;2.63;;;23.70;99.90;;;;;;5106226;28;20051;-85
2023/09/16 12:29:39;;;;;;;3.80;2.50;;;23.70;99.90;;;;;;5099039;28;20016;-85
2023/09/16 12:32:11;;;;;;;2.08;1.88;;;23.70;99.90;;;;;;5106134;28;20016;-85
2023/09/16 12:34:37;;;;;;;2.55;2.30;;;23.70;99.90;;;;;;5102796;28;20059;-85
2023/09/16 12:37:03;;;;;;;3.95;2.63;;;23.70;99.90;;;;;;5105042;28;20468;-85
2023/09/16 12:39:34;;;;;;;3.05;2.05;;;23.70;99.90;;;;;;5086536;28;20038;-84
2023/09/16 12:42:02;;;;;;;2.30;2.10;;;23.70;99.90;;;;;;5108117;28;20027;-86
2023/09/16 12:44:30;;;;;;;3.08;1.98;;;23.70;99.90;;;;;;5105141;28;20028;-86